sensor_id;sensor_type;location;lat;lon;timestamp;P1;durP1;ratioP1;P2;durP2;ratioP2
59516;SDS011;45342;42.662;27.718;2023-03-22T00:05:42;10.55;;;6.65;;
59516;SDS011;45342;42.662;27.718;2023-03-22T00:10:44;9.25;;;6.18;;
59516;SDS011;45342;42.662;27.718;2023-03-22T00:13:14;9.20;;;6.40;;
59516;SDS011;45342;42.662;27.718;2023-03-22T00:15:56;8.57;;;6.18;;
59516;SDS011;45342;42.662;27.718;2023-03-22T00:18:24;9.85;;;6.60;;
59516;SDS011;45342;42.662;27.718;2023-03-22T00:20:51;11.00;;;6.50;;
59516;SDS011;45342;42.662;27.718;2023-03-22T00:23:19;9.32;;;6.80;;
59516;SDS011;45342;42.662;27.718;2023-03-22T00:25:45;10.13;;;6.15;;
59516;SDS011;45342;42.662;27.718;2023-03-22T00:33:23;8.65;;;6.28;;
59516;SDS011;45342;42.662;27.718;2023-03-22T00:36:00;9.48;;;6.82;;
59516;SDS011;45342;42.662;27.718;2023-03-22T00:38:36;10.10;;;6.80;;
59516;SDS011;45342;42.662;27.718;2023-03-22T00:41:24;10.43;;;7.13;;
59516;SDS011;45342;42.662;27.718;2023-03-22T00:43:55;10.43;;;6.45;;
59516;SDS011;45342;42.662;27.718;2023-03-22T00:49:02;9.02;;;6.57;;
59516;SDS011;45342;42.662;27.718;2023-03-22T00:59:03;9.32;;;6.30;;
59516;SDS011;45342;42.662;27.718;2023-03-22T01:01:28;10.38;;;6.50;;
59516;SDS011;45342;42.662;27.718;2023-03-22T01:03:55;9.35;;;6.68;;
59516;SDS011;45342;42.662;27.718;2023-03-22T01:06:21;7.65;;;5.95;;
59516;SDS011;45342;42.662;27.718;2023-03-22T01:08:50;8.77;;;6.47;;
59516;SDS011;45342;42.662;27.718;2023-03-22T01:11:26;8.18;;;6.15;;
59516;SDS011;45342;42.662;27.718;2023-03-22T01:13:59;8.43;;;5.90;;
59516;SDS011;45342;42.662;27.718;2023-03-22T01:16:25;8.25;;;6.13;;
59516;SDS011;45342;42.662;27.718;2023-03-22T01:21:30;9.02;;;6.20;;
59516;SDS011;45342;42.662;27.718;2023-03-22T01:26:35;9.47;;;6.40;;
59516;SDS011;45342;42.662;27.718;2023-03-22T01:31:49;9.32;;;6.32;;
59516;SDS011;45342;42.662;27.718;2023-03-22T01:34:20;8.52;;;5.95;;
59516;SDS011;45342;42.662;27.718;2023-03-22T01:39:21;8.13;;;6.10;;
59516;SDS011;45342;42.662;27.718;2023-03-22T01:41:48;8.57;;;6.28;;
59516;SDS011;45342;42.662;27.718;2023-03-22T01:44:14;8.82;;;6.10;;
59516;SDS011;45342;42.662;27.718;2023-03-22T01:46:55;8.82;;;6.22;;
59516;SDS011;45342;42.662;27.718;2023-03-22T01:52:20;9.10;;;6.35;;
59516;SDS011;45342;42.662;27.718;2023-03-22T01:54:58;8.18;;;6.20;;
59516;SDS011;45342;42.662;27.718;2023-03-22T02:00:08;9.57;;;6.65;;
59516;SDS011;45342;42.662;27.718;2023-03-22T02:02:41;8.88;;;6.22;;
59516;SDS011;45342;42.662;27.718;2023-03-22T02:05:07;8.57;;;6.07;;
59516;SDS011;45342;42.662;27.718;2023-03-22T02:16:57;8.95;;;5.85;;
59516;SDS011;45342;42.662;27.718;2023-03-22T02:45:57;10.85;;;7.47;;
59516;SDS011;45342;42.662;27.718;2023-03-22T02:51:43;8.82;;;6.15;;
59516;SDS011;45342;42.662;27.718;2023-03-22T03:11:13;10.15;;;6.50;;
59516;SDS011;45342;42.662;27.718;2023-03-22T03:16:24;9.65;;;6.60;;
59516;SDS011;45342;42.662;27.718;2023-03-22T03:21:59;10.98;;;6.55;;
59516;SDS011;45342;42.662;27.718;2023-03-22T03:27:13;9.10;;;6.50;;
59516;SDS011;45342;42.662;27.718;2023-03-22T03:32:29;8.65;;;6.07;;
59516;SDS011;45342;42.662;27.718;2023-03-22T03:43:03;9.73;;;6.45;;
59516;SDS011;45342;42.662;27.718;2023-03-22T03:45:30;12.75;;;6.53;;
59516;SDS011;45342;42.662;27.718;2023-03-22T03:47:58;8.27;;;5.85;;
59516;SDS011;45342;42.662;27.718;2023-03-22T03:50:26;10.68;;;6.20;;
59516;SDS011;45342;42.662;27.718;2023-03-22T03:52:57;9.50;;;6.53;;
59516;SDS011;45342;42.662;27.718;2023-03-22T03:58:03;8.98;;;6.55;;
59516;SDS011;45342;42.662;27.718;2023-03-22T04:00:36;10.65;;;6.93;;
59516;SDS011;45342;42.662;27.718;2023-03-22T04:03:05;10.15;;;6.60;;
59516;SDS011;45342;42.662;27.718;2023-03-22T04:05:32;12.68;;;7.50;;
59516;SDS011;45342;42.662;27.718;2023-03-22T04:10:56;14.02;;;6.57;;
59516;SDS011;45342;42.662;27.718;2023-03-22T04:18:53;11.60;;;7.13;;
59516;SDS011;45342;42.662;27.718;2023-03-22T04:21:24;10.63;;;6.53;;
59516;SDS011;45342;42.662;27.718;2023-03-22T04:23:50;10.55;;;7.35;;
59516;SDS011;45342;42.662;27.718;2023-03-22T04:26:15;11.07;;;7.22;;
59516;SDS011;45342;42.662;27.718;2023-03-22T04:31:10;9.52;;;6.75;;
59516;SDS011;45342;42.662;27.718;2023-03-22T04:36:13;9.50;;;6.57;;
59516;SDS011;45342;42.662;27.718;2023-03-22T04:41:24;10.07;;;6.60;;
59516;SDS011;45342;42.662;27.718;2023-03-22T04:43:50;10.18;;;6.50;;
59516;SDS011;45342;42.662;27.718;2023-03-22T04:46:18;8.85;;;6.30;;
59516;SDS011;45342;42.662;27.718;2023-03-22T04:48:45;12.18;;;6.78;;
59516;SDS011;45342;42.662;27.718;2023-03-22T04:51:10;12.63;;;7.50;;
59516;SDS011;45342;42.662;27.718;2023-03-22T04:53:37;11.07;;;6.40;;
59516;SDS011;45342;42.662;27.718;2023-03-22T04:56:07;12.25;;;7.65;;
59516;SDS011;45342;42.662;27.718;2023-03-22T04:58:35;11.75;;;7.85;;
59516;SDS011;45342;42.662;27.718;2023-03-22T05:01:08;14.73;;;8.50;;
59516;SDS011;45342;42.662;27.718;2023-03-22T05:03:35;12.07;;;7.75;;
59516;SDS011;45342;42.662;27.718;2023-03-22T05:06:01;11.07;;;7.75;;
59516;SDS011;45342;42.662;27.718;2023-03-22T05:08:28;10.95;;;7.20;;
59516;SDS011;45342;42.662;27.718;2023-03-22T05:10:56;9.90;;;7.10;;
59516;SDS011;45342;42.662;27.718;2023-03-22T05:13:24;10.68;;;6.90;;
59516;SDS011;45342;42.662;27.718;2023-03-22T05:15:51;9.88;;;6.47;;
59516;SDS011;45342;42.662;27.718;2023-03-22T05:18:17;10.38;;;6.57;;
59516;SDS011;45342;42.662;27.718;2023-03-22T05:20:48;11.02;;;6.97;;
59516;SDS011;45342;42.662;27.718;2023-03-22T05:23:15;10.02;;;6.93;;
59516;SDS011;45342;42.662;27.718;2023-03-22T05:25:46;11.02;;;6.85;;
59516;SDS011;45342;42.662;27.718;2023-03-22T05:28:12;11.50;;;7.05;;
59516;SDS011;45342;42.662;27.718;2023-03-22T05:33:08;10.13;;;6.65;;
59516;SDS011;45342;42.662;27.718;2023-03-22T05:35:34;12.45;;;7.70;;
59516;SDS011;45342;42.662;27.718;2023-03-22T05:38:02;11.88;;;7.45;;
59516;SDS011;45342;42.662;27.718;2023-03-22T05:40:29;11.77;;;7.10;;
59516;SDS011;45342;42.662;27.718;2023-03-22T05:42:54;12.00;;;7.28;;
59516;SDS011;45342;42.662;27.718;2023-03-22T05:45:20;11.18;;;7.15;;
59516;SDS011;45342;42.662;27.718;2023-03-22T05:47:47;11.75;;;7.22;;
59516;SDS011;45342;42.662;27.718;2023-03-22T05:50:16;10.45;;;6.97;;
59516;SDS011;45342;42.662;27.718;2023-03-22T05:52:43;9.95;;;6.63;;
59516;SDS011;45342;42.662;27.718;2023-03-22T05:55:10;9.10;;;6.50;;
59516;SDS011;45342;42.662;27.718;2023-03-22T05:57:39;11.05;;;6.90;;
59516;SDS011;45342;42.662;27.718;2023-03-22T06:00:05;11.05;;;7.00;;
59516;SDS011;45342;42.662;27.718;2023-03-22T06:02:38;12.65;;;7.85;;
59516;SDS011;45342;42.662;27.718;2023-03-22T06:05:05;11.20;;;6.90;;
59516;SDS011;45342;42.662;27.718;2023-03-22T06:07:31;12.50;;;7.60;;
59516;SDS011;45342;42.662;27.718;2023-03-22T06:09:56;10.60;;;7.10;;
59516;SDS011;45342;42.662;27.718;2023-03-22T06:12:22;12.25;;;7.00;;
59516;SDS011;45342;42.662;27.718;2023-03-22T06:14:51;9.80;;;6.82;;
59516;SDS011;45342;42.662;27.718;2023-03-22T06:17:19;10.10;;;7.15;;
59516;SDS011;45342;42.662;27.718;2023-03-22T06:19:46;12.00;;;6.97;;
59516;SDS011;45342;42.662;27.718;2023-03-22T06:27:26;10.13;;;6.93;;
59516;SDS011;45342;42.662;27.718;2023-03-22T06:29:52;10.55;;;6.82;;
59516;SDS011;45342;42.662;27.718;2023-03-22T06:32:20;12.43;;;7.47;;
59516;SDS011;45342;42.662;27.718;2023-03-22T06:34:53;9.68;;;6.70;;
59516;SDS011;45342;42.662;27.718;2023-03-22T06:44:19;9.88;;;6.43;;
59516;SDS011;45342;42.662;27.718;2023-03-22T06:47:39;10.52;;;6.85;;
59516;SDS011;45342;42.662;27.718;2023-03-22T06:56:55;9.38;;;6.65;;
59516;SDS011;45342;42.662;27.718;2023-03-22T06:59:22;10.40;;;6.85;;
59516;SDS011;45342;42.662;27.718;2023-03-22T07:09:42;9.93;;;6.30;;
59516;SDS011;45342;42.662;27.718;2023-03-22T07:21:01;9.15;;;6.38;;
59516;SDS011;45342;42.662;27.718;2023-03-22T07:26:06;9.13;;;6.53;;
59516;SDS011;45342;42.662;27.718;2023-03-22T07:28:47;8.73;;;5.90;;
59516;SDS011;45342;42.662;27.718;2023-03-22T07:34:26;8.98;;;5.97;;
59516;SDS011;45342;42.662;27.718;2023-03-22T07:39:45;8.85;;;6.35;;
59516;SDS011;45342;42.662;27.718;2023-03-22T07:47:53;8.75;;;6.38;;
59516;SDS011;45342;42.662;27.718;2023-03-22T07:50:20;8.93;;;6.22;;
59516;SDS011;45342;42.662;27.718;2023-03-22T07:52:58;9.27;;;6.32;;
59516;SDS011;45342;42.662;27.718;2023-03-22T08:03:52;9.70;;;6.15;;
59516;SDS011;45342;42.662;27.718;2023-03-22T08:06:18;8.52;;;6.13;;
59516;SDS011;45342;42.662;27.718;2023-03-22T08:09:04;9.25;;;5.72;;
59516;SDS011;45342;42.662;27.718;2023-03-22T08:19:47;11.98;;;6.95;;
59516;SDS011;45342;42.662;27.718;2023-03-22T08:22:21;9.43;;;6.50;;
59516;SDS011;45342;42.662;27.718;2023-03-22T08:28:17;9.68;;;6.68;;
59516;SDS011;45342;42.662;27.718;2023-03-22T08:36:50;10.23;;;6.90;;
59516;SDS011;45342;42.662;27.718;2023-03-22T08:39:31;9.38;;;6.72;;
59516;SDS011;45342;42.662;27.718;2023-03-22T08:42:10;9.68;;;6.72;;
59516;SDS011;45342;42.662;27.718;2023-03-22T08:44:36;8.98;;;6.25;;
59516;SDS011;45342;42.662;27.718;2023-03-22T08:47:06;8.88;;;6.20;;
59516;SDS011;45342;42.662;27.718;2023-03-22T08:49:34;10.55;;;6.97;;
59516;SDS011;45342;42.662;27.718;2023-03-22T08:52:15;12.60;;;6.82;;
59516;SDS011;45342;42.662;27.718;2023-03-22T08:54:54;11.30;;;6.80;;
59516;SDS011;45342;42.662;27.718;2023-03-22T08:57:21;9.25;;;6.53;;
59516;SDS011;45342;42.662;27.718;2023-03-22T08:59:48;9.32;;;6.25;;
59516;SDS011;45342;42.662;27.718;2023-03-22T09:02:18;9.70;;;6.50;;
59516;SDS011;45342;42.662;27.718;2023-03-22T09:04:50;10.10;;;6.55;;
59516;SDS011;45342;42.662;27.718;2023-03-22T09:07:17;9.55;;;6.53;;
59516;SDS011;45342;42.662;27.718;2023-03-22T09:09:44;10.02;;;6.50;;
59516;SDS011;45342;42.662;27.718;2023-03-22T09:12:17;9.80;;;6.40;;
59516;SDS011;45342;42.662;27.718;2023-03-22T09:14:50;10.57;;;6.93;;
59516;SDS011;45342;42.662;27.718;2023-03-22T09:17:18;11.18;;;6.38;;
59516;SDS011;45342;42.662;27.718;2023-03-22T09:22:34;12.77;;;6.60;;
59516;SDS011;45342;42.662;27.718;2023-03-22T09:27:31;11.32;;;5.97;;
59516;SDS011;45342;42.662;27.718;2023-03-22T09:29:58;8.90;;;6.43;;
59516;SDS011;45342;42.662;27.718;2023-03-22T09:32:31;9.00;;;6.35;;
59516;SDS011;45342;42.662;27.718;2023-03-22T09:38:06;10.38;;;6.32;;
59516;SDS011;45342;42.662;27.718;2023-03-22T09:40:34;9.48;;;6.25;;
59516;SDS011;45342;42.662;27.718;2023-03-22T09:46:04;11.55;;;6.47;;
59516;SDS011;45342;42.662;27.718;2023-03-22T09:48:36;8.43;;;5.85;;
59516;SDS011;45342;42.662;27.718;2023-03-22T09:51:06;10.68;;;6.05;;
59516;SDS011;45342;42.662;27.718;2023-03-22T09:53:54;9.10;;;5.82;;
59516;SDS011;45342;42.662;27.718;2023-03-22T09:56:28;9.02;;;6.05;;
59516;SDS011;45342;42.662;27.718;2023-03-22T09:58:58;8.70;;;5.80;;
59516;SDS011;45342;42.662;27.718;2023-03-22T10:10:12;8.75;;;5.60;;
59516;SDS011;45342;42.662;27.718;2023-03-22T10:15:39;7.28;;;5.30;;
59516;SDS011;45342;42.662;27.718;2023-03-22T10:20:58;9.82;;;5.85;;
59516;SDS011;45342;42.662;27.718;2023-03-22T10:23:30;9.82;;;5.90;;
59516;SDS011;45342;42.662;27.718;2023-03-22T10:25:59;8.25;;;5.45;;
59516;SDS011;45342;42.662;27.718;2023-03-22T10:31:01;8.40;;;5.32;;
59516;SDS011;45342;42.662;27.718;2023-03-22T10:36:29;7.15;;;5.22;;
59516;SDS011;45342;42.662;27.718;2023-03-22T10:39:03;10.23;;;5.70;;
59516;SDS011;45342;42.662;27.718;2023-03-22T10:41:44;7.28;;;4.90;;
59516;SDS011;45342;42.662;27.718;2023-03-22T10:54:53;7.72;;;5.15;;
59516;SDS011;45342;42.662;27.718;2023-03-22T11:00:51;8.35;;;5.32;;
59516;SDS011;45342;42.662;27.718;2023-03-22T11:06:14;6.97;;;5.05;;
59516;SDS011;45342;42.662;27.718;2023-03-22T11:08:52;9.55;;;4.82;;
59516;SDS011;45342;42.662;27.718;2023-03-22T11:11:20;7.00;;;5.03;;
59516;SDS011;45342;42.662;27.718;2023-03-22T11:13:52;7.22;;;4.70;;
59516;SDS011;45342;42.662;27.718;2023-03-22T11:16:26;10.48;;;5.63;;
59516;SDS011;45342;42.662;27.718;2023-03-22T11:19:00;8.00;;;4.68;;
59516;SDS011;45342;42.662;27.718;2023-03-22T11:24:31;5.82;;;4.50;;
59516;SDS011;45342;42.662;27.718;2023-03-22T11:30:06;8.35;;;4.85;;
59516;SDS011;45342;42.662;27.718;2023-03-22T11:35:37;6.43;;;4.38;;
59516;SDS011;45342;42.662;27.718;2023-03-22T11:44:21;7.28;;;4.45;;
59516;SDS011;45342;42.662;27.718;2023-03-22T11:53:15;5.88;;;4.35;;
59516;SDS011;45342;42.662;27.718;2023-03-22T11:58:57;5.63;;;4.28;;
59516;SDS011;45342;42.662;27.718;2023-03-22T12:01:32;6.13;;;4.07;;
59516;SDS011;45342;42.662;27.718;2023-03-22T12:04:07;7.03;;;4.38;;
59516;SDS011;45342;42.662;27.718;2023-03-22T12:06:38;6.50;;;4.55;;
59516;SDS011;45342;42.662;27.718;2023-03-22T12:09:23;6.47;;;4.30;;
59516;SDS011;45342;42.662;27.718;2023-03-22T12:12:16;6.35;;;4.65;;
59516;SDS011;45342;42.662;27.718;2023-03-22T12:14:54;6.72;;;4.30;;
59516;SDS011;45342;42.662;27.718;2023-03-22T12:23:14;7.10;;;4.55;;
59516;SDS011;45342;42.662;27.718;2023-03-22T12:25:52;5.72;;;4.10;;
59516;SDS011;45342;42.662;27.718;2023-03-22T12:28:27;5.45;;;4.05;;
59516;SDS011;45342;42.662;27.718;2023-03-22T12:34:18;6.13;;;4.28;;
59516;SDS011;45342;42.662;27.718;2023-03-22T12:46:13;5.47;;;3.85;;
59516;SDS011;45342;42.662;27.718;2023-03-22T12:55:31;6.70;;;3.80;;
59516;SDS011;45342;42.662;27.718;2023-03-22T13:06:57;10.10;;;4.50;;
59516;SDS011;45342;42.662;27.718;2023-03-22T13:16:17;8.55;;;4.70;;
59516;SDS011;45342;42.662;27.718;2023-03-22T13:21:19;12.00;;;5.25;;
59516;SDS011;45342;42.662;27.718;2023-03-22T13:29:34;7.60;;;4.47;;
59516;SDS011;45342;42.662;27.718;2023-03-22T13:57:36;7.22;;;4.50;;
59516;SDS011;45342;42.662;27.718;2023-03-22T14:15:21;6.25;;;4.43;;
59516;SDS011;45342;42.662;27.718;2023-03-22T14:17:58;6.80;;;4.60;;
59516;SDS011;45342;42.662;27.718;2023-03-22T14:20:28;9.60;;;4.53;;
59516;SDS011;45342;42.662;27.718;2023-03-22T14:23:02;10.52;;;6.18;;
59516;SDS011;45342;42.662;27.718;2023-03-22T14:25:43;12.45;;;7.60;;
59516;SDS011;45342;42.662;27.718;2023-03-22T14:34:51;19.05;;;10.48;;
59516;SDS011;45342;42.662;27.718;2023-03-22T14:37:18;21.63;;;12.05;;
59516;SDS011;45342;42.662;27.718;2023-03-22T14:39:45;20.20;;;11.40;;
59516;SDS011;45342;42.662;27.718;2023-03-22T14:42:16;22.52;;;12.23;;
59516;SDS011;45342;42.662;27.718;2023-03-22T14:44:50;22.10;;;12.63;;
59516;SDS011;45342;42.662;27.718;2023-03-22T14:47:20;23.98;;;13.25;;
59516;SDS011;45342;42.662;27.718;2023-03-22T14:55:16;24.77;;;13.40;;
59516;SDS011;45342;42.662;27.718;2023-03-22T14:57:51;23.20;;;13.25;;
59516;SDS011;45342;42.662;27.718;2023-03-22T15:00:20;23.67;;;13.63;;
59516;SDS011;45342;42.662;27.718;2023-03-22T15:05:43;22.88;;;13.40;;
59516;SDS011;45342;42.662;27.718;2023-03-22T15:08:10;26.50;;;14.00;;
59516;SDS011;45342;42.662;27.718;2023-03-22T15:13:19;24.23;;;13.88;;
59516;SDS011;45342;42.662;27.718;2023-03-22T15:15:53;24.40;;;14.13;;
59516;SDS011;45342;42.662;27.718;2023-03-22T15:18:21;23.90;;;13.82;;
59516;SDS011;45342;42.662;27.718;2023-03-22T15:20:48;24.45;;;13.77;;
59516;SDS011;45342;42.662;27.718;2023-03-22T15:23:20;25.63;;;14.27;;
59516;SDS011;45342;42.662;27.718;2023-03-22T15:26:05;23.65;;;13.50;;
59516;SDS011;45342;42.662;27.718;2023-03-22T15:28:54;24.08;;;13.98;;
59516;SDS011;45342;42.662;27.718;2023-03-22T15:34:19;23.25;;;12.70;;
59516;SDS011;45342;42.662;27.718;2023-03-22T15:40:26;23.13;;;13.15;;
59516;SDS011;45342;42.662;27.718;2023-03-22T15:46:21;23.00;;;13.52;;
59516;SDS011;45342;42.662;27.718;2023-03-22T15:55:18;25.20;;;13.60;;
59516;SDS011;45342;42.662;27.718;2023-03-22T16:00:27;25.15;;;13.38;;
59516;SDS011;45342;42.662;27.718;2023-03-22T16:03:00;24.67;;;12.57;;
59516;SDS011;45342;42.662;27.718;2023-03-22T16:05:47;24.73;;;13.13;;
59516;SDS011;45342;42.662;27.718;2023-03-22T16:10:47;25.65;;;13.00;;
59516;SDS011;45342;42.662;27.718;2023-03-22T16:21:18;23.27;;;13.13;;
59516;SDS011;45342;42.662;27.718;2023-03-22T16:23:48;20.35;;;12.18;;
59516;SDS011;45342;42.662;27.718;2023-03-22T16:26:15;20.73;;;12.15;;
59516;SDS011;45342;42.662;27.718;2023-03-22T16:28:47;22.48;;;12.10;;
59516;SDS011;45342;42.662;27.718;2023-03-22T16:31:17;22.85;;;12.02;;
59516;SDS011;45342;42.662;27.718;2023-03-22T16:33:45;22.85;;;11.57;;
59516;SDS011;45342;42.662;27.718;2023-03-22T16:36:14;20.50;;;11.38;;
59516;SDS011;45342;42.662;27.718;2023-03-22T16:46:30;20.53;;;11.23;;
59516;SDS011;45342;42.662;27.718;2023-03-22T16:51:34;20.70;;;10.98;;
59516;SDS011;45342;42.662;27.718;2023-03-22T16:54:04;22.70;;;11.48;;
59516;SDS011;45342;42.662;27.718;2023-03-22T16:56:46;19.92;;;11.30;;
59516;SDS011;45342;42.662;27.718;2023-03-22T16:59:17;19.73;;;11.27;;
59516;SDS011;45342;42.662;27.718;2023-03-22T17:04:13;18.95;;;10.90;;
59516;SDS011;45342;42.662;27.718;2023-03-22T17:06:40;18.17;;;10.63;;
59516;SDS011;45342;42.662;27.718;2023-03-22T17:09:18;20.25;;;11.38;;
59516;SDS011;45342;42.662;27.718;2023-03-22T17:12:00;18.77;;;10.57;;
59516;SDS011;45342;42.662;27.718;2023-03-22T17:14:38;19.77;;;11.32;;
59516;SDS011;45342;42.662;27.718;2023-03-22T17:17:03;17.10;;;10.18;;
59516;SDS011;45342;42.662;27.718;2023-03-22T17:19:30;23.00;;;11.38;;
59516;SDS011;45342;42.662;27.718;2023-03-22T17:21:56;21.08;;;10.60;;
59516;SDS011;45342;42.662;27.718;2023-03-22T17:24:22;17.75;;;10.25;;
59516;SDS011;45342;42.662;27.718;2023-03-22T17:26:50;17.58;;;10.07;;
59516;SDS011;45342;42.662;27.718;2023-03-22T17:31:51;23.52;;;11.15;;
59516;SDS011;45342;42.662;27.718;2023-03-22T17:34:19;17.75;;;10.23;;
59516;SDS011;45342;42.662;27.718;2023-03-22T17:36:47;17.85;;;10.32;;
59516;SDS011;45342;42.662;27.718;2023-03-22T17:39:13;16.17;;;9.95;;
59516;SDS011;45342;42.662;27.718;2023-03-22T17:41:42;17.05;;;9.88;;
59516;SDS011;45342;42.662;27.718;2023-03-22T17:44:08;21.27;;;10.52;;
59516;SDS011;45342;42.662;27.718;2023-03-22T17:46:33;19.13;;;10.18;;
59516;SDS011;45342;42.662;27.718;2023-03-22T17:48:59;17.27;;;9.65;;
59516;SDS011;45342;42.662;27.718;2023-03-22T17:51:27;16.17;;;9.38;;
59516;SDS011;45342;42.662;27.718;2023-03-22T17:53:53;16.13;;;10.15;;
59516;SDS011;45342;42.662;27.718;2023-03-22T17:56:19;17.38;;;9.77;;
59516;SDS011;45342;42.662;27.718;2023-03-22T17:58:45;17.25;;;10.00;;
59516;SDS011;45342;42.662;27.718;2023-03-22T18:01:14;17.63;;;10.13;;
59516;SDS011;45342;42.662;27.718;2023-03-22T18:03:43;17.80;;;10.00;;
59516;SDS011;45342;42.662;27.718;2023-03-22T18:06:10;15.57;;;9.45;;
59516;SDS011;45342;42.662;27.718;2023-03-22T18:08:37;17.85;;;10.23;;
59516;SDS011;45342;42.662;27.718;2023-03-22T18:11:33;15.60;;;9.05;;
59516;SDS011;45342;42.662;27.718;2023-03-22T18:14:02;14.73;;;8.95;;
59516;SDS011;45342;42.662;27.718;2023-03-22T18:17:39;15.75;;;9.35;;
59516;SDS011;45342;42.662;27.718;2023-03-22T18:21:02;16.50;;;9.55;;
59516;SDS011;45342;42.662;27.718;2023-03-22T18:26:50;16.40;;;9.18;;
59516;SDS011;45342;42.662;27.718;2023-03-22T18:29:19;14.85;;;9.05;;
59516;SDS011;45342;42.662;27.718;2023-03-22T18:31:45;17.45;;;9.52;;
59516;SDS011;45342;42.662;27.718;2023-03-22T18:34:11;14.50;;;8.77;;
59516;SDS011;45342;42.662;27.718;2023-03-22T18:36:36;14.70;;;9.10;;
59516;SDS011;45342;42.662;27.718;2023-03-22T18:39:02;16.25;;;9.13;;
59516;SDS011;45342;42.662;27.718;2023-03-22T18:41:29;16.25;;;8.77;;
59516;SDS011;45342;42.662;27.718;2023-03-22T18:46:21;14.38;;;8.57;;
59516;SDS011;45342;42.662;27.718;2023-03-22T18:48:47;15.18;;;9.02;;
59516;SDS011;45342;42.662;27.718;2023-03-22T18:51:14;15.48;;;9.05;;
59516;SDS011;45342;42.662;27.718;2023-03-22T18:53:40;15.75;;;8.82;;
59516;SDS011;45342;42.662;27.718;2023-03-22T18:58:41;14.75;;;8.93;;
59516;SDS011;45342;42.662;27.718;2023-03-22T19:06:52;14.95;;;8.57;;
59516;SDS011;45342;42.662;27.718;2023-03-22T19:17:25;14.32;;;8.25;;
59516;SDS011;45342;42.662;27.718;2023-03-22T19:25:36;13.07;;;7.85;;
59516;SDS011;45342;42.662;27.718;2023-03-22T19:28:02;13.25;;;7.85;;
59516;SDS011;45342;42.662;27.718;2023-03-22T19:30:28;14.32;;;8.40;;
59516;SDS011;45342;42.662;27.718;2023-03-22T19:33:01;14.45;;;8.60;;
59516;SDS011;45342;42.662;27.718;2023-03-22T19:35:27;14.20;;;8.70;;
59516;SDS011;45342;42.662;27.718;2023-03-22T19:37:53;14.77;;;7.97;;
59516;SDS011;45342;42.662;27.718;2023-03-22T19:42:49;14.80;;;8.52;;
59516;SDS011;45342;42.662;27.718;2023-03-22T19:47:43;12.98;;;7.90;;
59516;SDS011;45342;42.662;27.718;2023-03-22T19:50:11;15.65;;;8.55;;
59516;SDS011;45342;42.662;27.718;2023-03-22T19:52:38;13.00;;;7.78;;
59516;SDS011;45342;42.662;27.718;2023-03-22T19:55:05;14.32;;;8.25;;
59516;SDS011;45342;42.662;27.718;2023-03-22T19:57:32;13.65;;;7.63;;
59516;SDS011;45342;42.662;27.718;2023-03-22T20:00:02;13.02;;;7.72;;
59516;SDS011;45342;42.662;27.718;2023-03-22T20:02:33;12.80;;;7.90;;
59516;SDS011;45342;42.662;27.718;2023-03-22T20:04:59;15.23;;;8.18;;
59516;SDS011;45342;42.662;27.718;2023-03-22T20:07:41;14.82;;;8.18;;
59516;SDS011;45342;42.662;27.718;2023-03-22T20:10:16;12.00;;;7.47;;
59516;SDS011;45342;42.662;27.718;2023-03-22T20:12:58;12.50;;;7.78;;
59516;SDS011;45342;42.662;27.718;2023-03-22T20:15:24;15.38;;;7.97;;
59516;SDS011;45342;42.662;27.718;2023-03-22T20:17:50;13.80;;;7.97;;
59516;SDS011;45342;42.662;27.718;2023-03-22T20:20:17;12.75;;;7.80;;
59516;SDS011;45342;42.662;27.718;2023-03-22T20:22:48;11.73;;;7.07;;
59516;SDS011;45342;42.662;27.718;2023-03-22T20:25:18;12.93;;;7.93;;
59516;SDS011;45342;42.662;27.718;2023-03-22T20:27:46;12.98;;;7.47;;
59516;SDS011;45342;42.662;27.718;2023-03-22T20:32:59;13.82;;;7.57;;
59516;SDS011;45342;42.662;27.718;2023-03-22T20:37:56;11.35;;;7.78;;
59516;SDS011;45342;42.662;27.718;2023-03-22T20:40:24;11.07;;;7.13;;
59516;SDS011;45342;42.662;27.718;2023-03-22T20:42:50;11.35;;;7.18;;
59516;SDS011;45342;42.662;27.718;2023-03-22T20:45:33;11.93;;;7.20;;
59516;SDS011;45342;42.662;27.718;2023-03-22T20:48:01;12.88;;;7.80;;
59516;SDS011;45342;42.662;27.718;2023-03-22T20:50:47;11.80;;;6.93;;
59516;SDS011;45342;42.662;27.718;2023-03-22T20:53:15;11.43;;;7.28;;
59516;SDS011;45342;42.662;27.718;2023-03-22T20:55:45;11.30;;;7.40;;
59516;SDS011;45342;42.662;27.718;2023-03-22T20:58:16;9.90;;;6.85;;
59516;SDS011;45342;42.662;27.718;2023-03-22T21:00:43;12.23;;;7.45;;
59516;SDS011;45342;42.662;27.718;2023-03-22T21:03:09;10.15;;;6.60;;
59516;SDS011;45342;42.662;27.718;2023-03-22T21:08:01;11.32;;;6.95;;
59516;SDS011;45342;42.662;27.718;2023-03-22T21:10:28;11.68;;;7.20;;
59516;SDS011;45342;42.662;27.718;2023-03-22T21:16:15;12.07;;;7.35;;
59516;SDS011;45342;42.662;27.718;2023-03-22T21:18:42;10.82;;;6.65;;
59516;SDS011;45342;42.662;27.718;2023-03-22T21:21:08;11.27;;;6.78;;
59516;SDS011;45342;42.662;27.718;2023-03-22T21:23:35;11.57;;;6.75;;
59516;SDS011;45342;42.662;27.718;2023-03-22T21:26:02;11.60;;;6.60;;
59516;SDS011;45342;42.662;27.718;2023-03-22T21:28:28;10.45;;;6.97;;
59516;SDS011;45342;42.662;27.718;2023-03-22T21:30:57;10.70;;;6.82;;
59516;SDS011;45342;42.662;27.718;2023-03-22T21:33:28;10.75;;;6.97;;
59516;SDS011;45342;42.662;27.718;2023-03-22T21:35:54;9.38;;;6.22;;
59516;SDS011;45342;42.662;27.718;2023-03-22T21:38:21;10.30;;;6.47;;
59516;SDS011;45342;42.662;27.718;2023-03-22T21:40:47;9.50;;;6.68;;
59516;SDS011;45342;42.662;27.718;2023-03-22T21:43:21;10.55;;;6.90;;
59516;SDS011;45342;42.662;27.718;2023-03-22T21:45:47;11.63;;;7.30;;
59516;SDS011;45342;42.662;27.718;2023-03-22T21:48:14;10.75;;;7.20;;
59516;SDS011;45342;42.662;27.718;2023-03-22T21:50:42;11.20;;;6.30;;
59516;SDS011;45342;42.662;27.718;2023-03-22T21:53:09;10.60;;;6.78;;
59516;SDS011;45342;42.662;27.718;2023-03-22T21:55:36;12.45;;;6.93;;
59516;SDS011;45342;42.662;27.718;2023-03-22T21:58:14;9.35;;;6.68;;
59516;SDS011;45342;42.662;27.718;2023-03-22T22:01:20;10.05;;;6.85;;
59516;SDS011;45342;42.662;27.718;2023-03-22T22:03:46;10.10;;;6.53;;
59516;SDS011;45342;42.662;27.718;2023-03-22T22:06:12;10.05;;;6.45;;
59516;SDS011;45342;42.662;27.718;2023-03-22T22:08:39;11.07;;;6.68;;
59516;SDS011;45342;42.662;27.718;2023-03-22T22:11:05;9.55;;;6.68;;
59516;SDS011;45342;42.662;27.718;2023-03-22T22:13:33;11.13;;;6.40;;
59516;SDS011;45342;42.662;27.718;2023-03-22T22:16:00;11.02;;;6.65;;
59516;SDS011;45342;42.662;27.718;2023-03-22T22:18:27;10.05;;;6.53;;
59516;SDS011;45342;42.662;27.718;2023-03-22T22:20:59;11.95;;;6.18;;
59516;SDS011;45342;42.662;27.718;2023-03-22T22:23:31;9.65;;;6.35;;
59516;SDS011;45342;42.662;27.718;2023-03-22T22:25:58;10.20;;;6.30;;
59516;SDS011;45342;42.662;27.718;2023-03-22T22:28:25;10.02;;;6.43;;
59516;SDS011;45342;42.662;27.718;2023-03-22T22:30:51;9.82;;;6.22;;
59516;SDS011;45342;42.662;27.718;2023-03-22T22:35:43;9.80;;;6.38;;
59516;SDS011;45342;42.662;27.718;2023-03-22T22:38:09;9.35;;;6.45;;
59516;SDS011;45342;42.662;27.718;2023-03-22T22:40:35;9.77;;;5.88;;
59516;SDS011;45342;42.662;27.718;2023-03-22T22:43:01;9.48;;;6.13;;
59516;SDS011;45342;42.662;27.718;2023-03-22T22:45:27;10.98;;;6.65;;